createdAt,value
2019-04-05T00:01:35.962Z,4.70
2019-04-05T00:04:05.081Z,4.68
2019-04-05T00:06:34.106Z,4.63
2019-04-05T00:09:04.460Z,4.52
2019-04-05T00:11:33.640Z,4.52
2019-04-05T00:14:02.880Z,4.56
2019-04-05T00:16:31.967Z,4.54
2019-04-05T00:19:01.094Z,4.50
2019-04-05T00:21:30.178Z,4.50
2019-04-05T00:23:59.310Z,4.62
2019-04-05T00:26:28.400Z,4.62
2019-04-05T00:28:57.533Z,4.50
2019-04-05T00:31:26.545Z,4.48
2019-04-05T00:33:55.567Z,4.48
2019-04-05T00:36:24.579Z,4.52
2019-04-05T00:38:53.709Z,4.56
2019-04-05T00:41:22.831Z,4.50
2019-04-05T00:43:51.921Z,4.52
2019-04-05T00:46:21.021Z,4.47
2019-04-05T00:48:50.166Z,4.53
2019-04-05T00:51:19.333Z,4.53
2019-04-05T00:53:48.521Z,4.56
2019-04-05T00:56:17.642Z,4.42
2019-04-05T00:58:46.639Z,4.42
2019-04-05T01:01:15.633Z,4.28
2019-04-05T01:03:44.693Z,4.27
2019-04-05T01:06:14.011Z,4.27
2019-04-05T01:08:43.063Z,4.23
2019-04-05T01:11:12.353Z,4.20
2019-04-05T01:13:43.978Z,4.20
2019-04-05T01:16:13.096Z,4.17
2019-04-05T01:18:42.287Z,4.18
2019-04-05T01:21:14.343Z,4.18
2019-04-05T01:23:43.692Z,4.17
2019-04-05T01:26:15.448Z,4.20
2019-04-05T01:28:44.658Z,4.17
2019-04-05T01:31:13.768Z,4.13
2019-04-05T01:33:42.853Z,4.13
2019-04-05T01:36:11.955Z,4.14
2019-04-05T01:38:41.156Z,4.06
2019-04-05T01:41:10.888Z,4.03
2019-04-05T01:43:40.047Z,3.99
2019-04-05T01:46:09.537Z,3.94
2019-04-05T01:48:38.655Z,3.92
2019-04-05T01:51:07.972Z,3.88
2019-04-05T01:53:37.176Z,3.77
2019-04-05T01:56:06.359Z,3.63
2019-04-05T01:58:35.475Z,3.63
2019-04-05T02:01:04.675Z,3.58
2019-04-05T02:03:33.879Z,3.51
2019-04-05T02:06:03.045Z,3.54
2019-04-05T02:08:32.185Z,3.53
2019-04-05T02:11:01.374Z,3.49
2019-04-05T02:13:30.545Z,3.37
2019-04-05T02:16:06.315Z,3.39
2019-04-05T02:18:30.634Z,3.30
2019-04-05T02:21:00.293Z,3.30
2019-04-05T02:23:29.401Z,3.32
2019-04-05T02:25:58.489Z,3.26
2019-04-05T02:28:27.676Z,3.22
2019-04-05T02:30:56.879Z,3.21
2019-04-05T02:33:26.079Z,3.21
2019-04-05T02:35:55.402Z,3.15
2019-04-05T02:38:24.576Z,3.09
2019-04-05T02:40:58.030Z,3.06
2019-04-05T02:43:28.012Z,3.06
2019-04-05T02:45:57.722Z,2.97
2019-04-05T02:48:29.220Z,2.99
2019-04-05T02:51:01.322Z,2.93
2019-04-05T02:53:31.456Z,2.90
2019-04-05T02:56:03.268Z,2.90
2019-04-05T02:58:33.838Z,2.88
2019-04-05T03:01:03.600Z,2.88
2019-04-05T03:03:32.675Z,2.86
2019-04-05T03:06:02.357Z,2.86
2019-04-05T03:08:31.499Z,2.87
2019-04-05T03:11:11.681Z,2.78
2019-04-05T03:13:48.427Z,2.76
2019-04-05T03:16:38.482Z,2.79
2019-04-05T03:19:05.052Z,2.69
2019-04-05T03:21:37.245Z,2.57
2019-04-05T03:24:07.987Z,2.60
2019-04-05T03:26:40.223Z,2.69
2019-04-05T03:29:11.171Z,2.59
2019-04-05T03:31:40.817Z,2.57
2019-04-05T03:34:10.000Z,2.56
2019-04-05T03:36:39.956Z,2.57
2019-04-05T03:39:10.475Z,2.54
2019-04-05T03:41:39.717Z,2.47
2019-04-05T03:44:10.605Z,2.47
2019-04-05T03:46:55.375Z,2.43
2019-04-05T03:49:11.847Z,2.36
2019-04-05T03:51:41.505Z,2.33
2019-04-05T03:54:10.693Z,2.33
2019-04-05T03:56:39.835Z,2.29
2019-04-05T03:59:09.105Z,2.29
2019-04-05T04:01:38.276Z,2.25
2019-04-05T04:04:07.554Z,2.25
2019-04-05T04:06:36.736Z,2.29
2019-04-05T04:09:07.041Z,2.29
2019-04-05T04:11:37.111Z,2.23
2019-04-05T04:14:06.934Z,2.17
2019-04-05T04:16:36.287Z,2.10
2019-04-05T04:19:05.688Z,2.11
2019-04-05T04:21:42.038Z,2.11
2019-04-05T04:24:11.382Z,2.12
2019-04-05T04:26:41.726Z,2.10
2019-04-05T04:29:11.187Z,2.08
2019-04-05T04:31:40.762Z,2.05
2019-04-05T04:34:10.066Z,2.05
2019-04-05T04:36:39.204Z,1.98
2019-04-05T04:39:08.391Z,1.90
2019-04-05T04:41:37.537Z,1.90
2019-04-05T04:44:06.842Z,1.82
2019-04-05T04:46:36.017Z,1.91
2019-04-05T04:49:05.232Z,1.84
2019-04-05T04:51:35.049Z,1.73
2019-04-05T04:54:04.549Z,1.73
2019-04-05T04:56:33.956Z,1.81
2019-04-05T04:59:03.110Z,1.74
2019-04-05T05:01:32.365Z,1.74
2019-04-05T05:04:01.981Z,1.66
2019-04-05T05:06:31.200Z,1.66
2019-04-05T05:09:00.900Z,1.60
2019-04-05T05:11:30.356Z,1.63
2019-04-05T05:13:59.513Z,1.58
2019-04-05T05:16:28.752Z,1.58
2019-04-05T05:18:57.919Z,1.62
2019-04-05T05:21:27.024Z,1.64
2019-04-05T05:23:56.182Z,1.61
2019-04-05T05:26:25.822Z,1.60
2019-04-05T05:28:54.902Z,1.63
2019-04-05T05:31:25.264Z,1.59
2019-04-05T05:33:54.547Z,1.59
2019-04-05T05:36:23.724Z,1.56
2019-04-05T05:38:52.981Z,1.55
2019-04-05T05:41:22.145Z,1.51
2019-04-05T05:43:51.324Z,1.49
2019-04-05T05:46:20.487Z,1.55
2019-04-05T05:48:49.698Z,1.63
2019-04-05T05:51:18.903Z,1.71
2019-04-05T05:53:48.030Z,1.80
2019-04-05T05:56:17.060Z,1.81
2019-04-05T05:58:46.074Z,1.81
2019-04-05T06:01:15.073Z,1.85
2019-04-05T06:03:44.097Z,2.08
2019-04-05T06:06:13.157Z,2.08
2019-04-05T06:08:42.175Z,2.38
2019-04-05T06:11:11.267Z,2.47
2019-04-05T06:13:40.259Z,2.60
2019-04-05T06:16:09.384Z,2.67
2019-04-05T06:18:38.358Z,2.74
2019-04-05T06:21:07.427Z,2.77
2019-04-05T06:23:36.566Z,2.77
2019-04-05T06:26:05.717Z,2.67
2019-04-05T06:28:34.807Z,2.66
2019-04-05T06:31:03.882Z,2.77
2019-04-05T06:33:35.730Z,2.81
2019-04-05T06:36:03.823Z,2.93
2019-04-05T06:38:33.216Z,2.99
2019-04-05T06:41:02.194Z,3.01
2019-04-05T06:43:31.263Z,3.01
2019-04-05T06:46:00.465Z,3.27
2019-04-05T06:48:29.898Z,3.50
2019-04-05T06:50:59.045Z,3.76
2019-04-05T06:53:28.064Z,3.84
2019-04-05T06:55:59.559Z,4.19
2019-04-05T06:58:29.454Z,4.33
2019-04-05T07:00:58.754Z,4.70
2019-04-05T07:03:27.897Z,4.70
2019-04-05T07:05:57.007Z,5.47
2019-04-05T07:08:26.028Z,5.47
2019-04-05T07:10:55.052Z,6.01
2019-04-05T07:13:27.214Z,6.35
2019-04-05T07:15:55.055Z,6.92
2019-04-05T07:18:34.047Z,7.29
2019-04-05T07:20:57.755Z,7.29
2019-04-05T07:23:25.697Z,7.46
2019-04-05T07:25:54.709Z,7.73
2019-04-05T07:28:25.125Z,8.09
2019-04-05T07:30:54.314Z,8.09
2019-04-05T07:33:23.344Z,8.56
2019-04-05T07:35:52.455Z,8.53
2019-04-05T07:38:21.457Z,8.67
2019-04-05T07:40:50.495Z,8.95
2019-04-05T07:43:19.571Z,8.94
2019-04-05T07:45:48.570Z,8.68
2019-04-05T07:48:17.606Z,8.68
2019-04-05T07:50:49.540Z,8.99
2019-04-05T07:53:18.569Z,9.35
2019-04-05T07:55:47.803Z,9.71
2019-04-05T07:58:16.922Z,9.53
2019-04-05T08:01:05.776Z,9.63
2019-04-05T08:03:34.893Z,9.44
2019-04-05T08:06:04.022Z,9.48
2019-04-05T08:11:08.804Z,9.57
2019-04-05T08:13:41.023Z,9.39
2019-04-05T08:16:10.149Z,9.64
2019-04-05T08:18:39.255Z,9.73
2019-04-05T08:21:08.380Z,9.56
2019-04-05T08:23:37.635Z,9.55
2019-04-05T08:26:06.737Z,9.59
2019-04-05T08:28:35.709Z,9.37
2019-04-05T08:31:04.812Z,9.34
2019-04-05T08:33:36.300Z,9.39
2019-04-05T08:36:04.748Z,9.73
2019-04-05T08:38:33.821Z,9.56
2019-04-05T08:41:03.006Z,9.71
2019-04-05T08:43:32.101Z,9.71
2019-04-05T08:46:01.176Z,9.63
2019-04-05T08:48:30.256Z,9.57
2019-04-05T08:50:59.410Z,9.74
2019-04-05T08:53:28.443Z,9.66
2019-04-05T08:55:57.458Z,9.46
2019-04-05T08:58:33.291Z,9.70
2019-04-05T09:00:57.290Z,9.90
2019-04-05T09:03:26.387Z,10.07
2019-04-05T09:05:55.450Z,10.02
2019-04-05T09:08:24.548Z,10.20
2019-04-05T09:10:54.699Z,9.99
2019-04-05T09:13:23.888Z,10.33
2019-04-05T09:15:52.957Z,10.13
2019-04-05T09:18:21.957Z,10.27
2019-04-05T09:20:50.969Z,10.19
2019-04-05T09:23:19.986Z,10.53
2019-04-05T09:25:49.014Z,10.56
2019-04-05T09:28:18.082Z,10.68
2019-04-05T09:30:47.090Z,10.86
2019-04-05T09:33:16.114Z,11.29
2019-04-05T09:35:45.107Z,11.23
2019-04-05T09:38:14.183Z,11.65
2019-04-05T09:40:43.434Z,12.02
2019-04-05T09:43:12.566Z,12.30
2019-04-05T09:45:41.613Z,12.34
2019-04-05T09:48:10.743Z,11.95
2019-04-05T09:50:39.757Z,12.49
2019-04-05T09:53:08.938Z,12.49
2019-04-05T09:55:37.937Z,12.87
2019-04-05T09:58:09.904Z,13.49
2019-04-05T10:00:37.775Z,12.89
2019-04-05T10:03:06.899Z,12.89
2019-04-05T10:05:36.039Z,13.28
2019-04-05T10:10:37.892Z,14.09
2019-04-05T10:13:09.628Z,14.04
2019-04-05T10:15:38.178Z,12.81
2019-04-05T10:18:07.298Z,13.63
2019-04-05T10:20:38.899Z,13.63
2019-04-05T10:23:07.083Z,13.88
2019-04-05T10:25:36.574Z,14.29
2019-04-05T10:28:05.933Z,14.11
2019-04-05T10:30:35.048Z,14.11
2019-04-05T10:33:04.050Z,14.27
2019-04-05T10:35:33.207Z,14.82
2019-04-05T10:38:02.221Z,14.51
2019-04-05T10:40:31.528Z,14.51
2019-04-05T10:43:00.550Z,14.97
2019-04-05T10:45:29.617Z,14.61
2019-04-05T10:47:58.799Z,15.07
2019-04-05T10:50:27.961Z,14.42
2019-04-05T10:52:57.111Z,14.72
2019-04-05T10:55:26.082Z,14.04
2019-04-05T10:57:55.159Z,14.46
2019-04-05T11:00:24.977Z,14.46
2019-04-05T11:02:54.095Z,15.53
2019-04-05T11:05:23.163Z,15.04
2019-04-05T11:07:52.163Z,14.50
2019-04-05T11:10:21.320Z,14.32
2019-04-05T11:12:50.526Z,14.05
2019-04-05T11:15:20.549Z,13.35
2019-04-05T11:17:49.594Z,13.76
2019-04-05T11:20:22.399Z,13.57
2019-04-05T11:22:50.954Z,14.74
2019-04-05T11:25:21.132Z,14.05
2019-04-05T11:27:50.452Z,14.85
2019-04-05T11:30:37.918Z,14.64
2019-04-05T11:33:07.373Z,13.88
2019-04-05T11:35:37.000Z,14.88
2019-04-05T11:38:06.170Z,15.16
2019-04-05T11:40:35.696Z,15.84
2019-04-05T11:43:05.740Z,15.74
2019-04-05T11:45:38.623Z,15.38
2019-04-05T11:48:11.351Z,15.25
2019-04-05T11:50:40.526Z,14.34
2019-04-05T11:53:13.632Z,14.34
2019-04-05T11:55:42.746Z,15.09
2019-04-05T11:58:12.023Z,14.87
2019-04-05T12:00:49.915Z,14.87
2019-04-05T12:03:19.124Z,13.84
2019-04-05T12:05:49.817Z,13.84
2019-04-05T12:08:18.934Z,15.13
2019-04-05T12:10:47.994Z,15.80
2019-04-05T12:13:17.041Z,15.80
2019-04-05T12:15:46.114Z,14.83
2019-04-05T12:18:19.117Z,15.11
2019-04-05T12:20:52.148Z,14.49
2019-04-05T12:23:16.778Z,13.74
2019-04-05T12:25:45.769Z,14.25
2019-04-05T12:28:14.751Z,14.25
2019-04-05T12:30:46.620Z,13.84
2019-04-05T12:33:19.253Z,13.83
2019-04-05T12:35:46.347Z,13.71
2019-04-05T12:38:31.596Z,13.96
2019-04-05T12:41:02.970Z,13.93
2019-04-05T12:43:32.435Z,13.74
2019-04-05T12:46:03.956Z,13.86
2019-04-05T12:48:33.001Z,13.35
2019-04-05T12:51:05.140Z,14.07
2019-04-05T12:53:32.793Z,13.56
2019-04-05T12:56:01.829Z,13.56
2019-04-05T12:58:32.750Z,13.83
2019-04-05T13:01:01.524Z,13.83
2019-04-05T13:03:30.588Z,13.14
2019-04-05T13:05:59.649Z,13.55
2019-04-05T13:08:28.664Z,13.62
2019-04-05T13:10:57.729Z,13.71
2019-04-05T13:13:27.629Z,13.71
2019-04-05T13:15:59.156Z,15.39
2019-04-05T13:18:30.623Z,15.39
2019-04-05T13:21:00.349Z,16.69
2019-04-05T13:23:29.189Z,16.24
2019-04-05T13:25:58.307Z,16.43
2019-04-05T13:28:27.374Z,16.99
2019-04-05T13:30:56.498Z,15.97
2019-04-05T13:33:25.539Z,16.14
2019-04-05T13:35:54.513Z,16.14
2019-04-05T13:38:23.492Z,16.07
2019-04-05T13:40:52.677Z,15.34
2019-04-05T13:43:21.691Z,16.54
2019-04-05T13:45:55.289Z,16.54
2019-04-05T13:48:24.382Z,16.66
2019-04-05T13:50:53.451Z,14.95
2019-04-05T13:53:22.450Z,15.66
2019-04-05T13:55:51.554Z,16.55
2019-04-05T13:58:20.694Z,16.53
2019-04-05T14:00:49.933Z,15.95
2019-04-05T14:03:20.884Z,15.10
2019-04-05T14:05:50.174Z,15.10
2019-04-05T14:08:20.523Z,14.56
2019-04-05T14:10:49.612Z,14.40
2019-04-05T14:13:18.800Z,15.80
2019-04-05T14:15:48.190Z,15.88
2019-04-05T14:18:17.456Z,15.28
2019-04-05T14:20:49.668Z,15.24
2019-04-05T14:23:17.358Z,15.77
2019-04-05T14:25:46.418Z,15.70
2019-04-05T14:28:15.519Z,15.70
2019-04-05T14:30:44.505Z,14.30
2019-04-05T14:33:13.570Z,13.84
2019-04-05T14:35:42.752Z,14.06
2019-04-05T14:38:11.982Z,14.36
2019-04-05T14:40:40.977Z,14.36
2019-04-05T14:43:10.046Z,14.61
2019-04-05T14:45:39.230Z,14.61
2019-04-05T14:48:08.246Z,14.41
2019-04-05T14:50:37.241Z,14.25
2019-04-05T14:53:06.676Z,14.06
2019-04-05T14:55:35.755Z,14.85
2019-04-05T14:58:06.040Z,15.19
2019-04-05T15:00:35.271Z,15.92
2019-04-05T15:03:04.371Z,15.69
2019-04-05T15:05:33.619Z,16.04
2019-04-05T15:08:02.632Z,14.74
2019-04-05T15:10:31.759Z,14.36
2019-04-05T15:13:01.559Z,14.40
2019-04-05T15:15:30.678Z,14.45
2019-04-05T15:17:59.646Z,14.60
2019-04-05T15:20:28.813Z,14.78
2019-04-05T15:22:57.902Z,15.05
2019-04-05T15:25:26.922Z,15.27
2019-04-05T15:27:56.492Z,15.00
2019-04-05T15:30:26.444Z,14.66
2019-04-05T15:32:57.958Z,14.32
2019-04-05T15:35:28.294Z,14.36
2019-04-05T15:37:57.200Z,14.45
2019-04-05T15:40:26.253Z,15.05
2019-04-05T15:42:55.347Z,14.68
2019-04-05T15:45:24.440Z,14.24
2019-04-05T15:47:53.578Z,13.64
2019-04-05T15:50:22.850Z,13.77
2019-04-05T15:52:52.394Z,13.77
2019-04-05T15:55:25.215Z,14.39
2019-04-05T15:57:57.335Z,14.39
2019-04-05T16:00:41.631Z,14.40
2019-04-05T16:03:11.289Z,14.25
2019-04-05T16:05:40.566Z,14.20
2019-04-05T16:08:09.745Z,13.37
2019-04-05T16:10:38.772Z,14.04
2019-04-05T16:13:09.598Z,13.30
2019-04-05T16:15:38.692Z,13.68
2019-04-05T16:18:07.706Z,13.40
2019-04-05T16:20:36.728Z,13.25
2019-04-05T16:23:05.830Z,12.94
2019-04-05T16:25:35.678Z,12.70
2019-04-05T16:28:05.113Z,13.04
2019-04-05T16:30:34.208Z,13.59
2019-04-05T16:33:03.362Z,13.39
2019-04-05T16:35:32.907Z,13.39
2019-04-05T16:38:02.007Z,12.72
2019-04-05T16:40:31.496Z,12.72
2019-04-05T16:43:02.836Z,12.76
2019-04-05T16:45:31.535Z,12.52
2019-04-05T16:48:00.600Z,12.33
2019-04-05T16:50:29.618Z,12.33
2019-04-05T16:52:58.726Z,12.07
2019-04-05T16:55:27.715Z,12.07
2019-04-05T16:58:30.833Z,12.70
2019-04-05T17:01:00.162Z,12.82
2019-04-05T17:03:29.309Z,12.14
2019-04-05T17:05:58.392Z,12.31
2019-04-05T17:08:27.469Z,12.31
2019-04-05T17:10:56.494Z,12.57
2019-04-05T17:13:25.517Z,12.47
2019-04-05T17:15:54.603Z,12.19
2019-04-05T17:18:23.659Z,12.06
2019-04-05T17:20:52.661Z,12.16
2019-04-05T17:23:21.774Z,12.36
2019-04-05T17:25:50.918Z,12.21
2019-04-05T17:28:19.925Z,12.21
2019-04-05T17:30:48.956Z,11.97
2019-04-05T17:33:18.041Z,11.69
2019-04-05T17:35:47.031Z,11.72
2019-04-05T17:38:16.055Z,11.62
2019-04-05T17:40:45.494Z,11.78
2019-04-05T17:43:14.516Z,11.93
2019-04-05T17:45:43.518Z,11.62
2019-04-05T17:48:12.671Z,11.70
2019-04-05T17:50:41.672Z,11.88
2019-04-05T17:53:13.759Z,11.53
2019-04-05T17:55:42.841Z,11.56
2019-04-05T17:58:12.330Z,11.43
2019-04-05T18:00:41.793Z,11.43
2019-04-05T18:03:10.964Z,11.50
2019-04-05T18:05:40.046Z,11.41
2019-04-05T18:08:09.184Z,11.42
2019-04-05T18:10:55.037Z,11.00
2019-04-05T18:13:24.200Z,11.00
2019-04-05T18:15:53.411Z,11.12
2019-04-05T18:18:22.528Z,11.34
2019-04-05T18:20:51.624Z,11.33
2019-04-05T18:23:25.376Z,11.22
2019-04-05T18:25:51.644Z,11.21
2019-04-05T18:30:55.717Z,11.21
2019-04-05T18:33:24.748Z,11.41
2019-04-05T18:36:00.009Z,11.37
2019-04-05T18:38:30.628Z,11.25
2019-04-05T18:40:59.754Z,11.40
2019-04-05T18:43:29.276Z,10.99
2019-04-05T18:45:58.297Z,10.74
2019-04-05T18:48:27.438Z,10.94
2019-04-05T18:51:07.266Z,10.81
2019-04-05T18:53:37.966Z,10.86
2019-04-05T18:56:07.225Z,10.66
2019-04-05T18:58:39.276Z,10.78
2019-04-05T19:01:08.358Z,10.90
2019-04-05T19:03:37.380Z,10.65
2019-04-05T19:06:06.647Z,10.86
2019-04-05T19:08:39.801Z,10.86
2019-04-05T19:11:06.569Z,10.50
2019-04-05T19:13:35.654Z,10.77
2019-04-05T19:16:04.754Z,10.58
2019-04-05T19:18:33.868Z,10.75
2019-04-05T19:21:02.987Z,10.80
2019-04-05T19:23:32.011Z,10.46
2019-04-05T19:26:01.166Z,10.36
2019-04-05T19:28:30.170Z,10.36
2019-04-05T19:48:35.550Z,10.15
2019-04-05T19:53:40.842Z,10.24
2019-04-05T19:56:11.638Z,10.35
2019-04-05T19:58:40.636Z,10.35
2019-04-05T20:01:09.733Z,10.16
2019-04-05T20:03:38.739Z,10.09
2019-04-05T20:06:08.035Z,10.09
2019-04-05T20:08:37.076Z,10.16
2019-04-05T20:11:06.364Z,10.10
2019-04-05T20:13:35.471Z,10.23
2019-04-05T20:16:05.095Z,10.35
2019-04-05T20:18:34.235Z,10.18
2019-04-05T20:21:03.783Z,10.28
2019-04-05T20:23:35.117Z,10.30
2019-04-05T20:26:04.866Z,10.13
2019-04-05T20:28:34.019Z,9.95
2019-04-05T20:31:03.196Z,10.12
2019-04-05T20:33:36.762Z,10.21
2019-04-05T20:36:06.660Z,10.11
2019-04-05T20:38:36.831Z,9.84
2019-04-05T20:41:06.482Z,9.84
2019-04-05T20:43:37.013Z,9.99
2019-04-05T20:46:06.267Z,10.00
2019-04-05T20:51:22.908Z,9.96
2019-04-05T20:53:52.347Z,10.10
2019-04-05T20:56:21.533Z,10.10
2019-04-05T21:01:32.524Z,9.94
2019-04-05T21:04:02.950Z,10.09
2019-04-05T21:06:32.227Z,9.90
2019-04-05T21:09:01.695Z,9.79
2019-04-05T21:11:31.304Z,9.76
2019-04-05T21:14:01.294Z,9.83
2019-04-05T21:16:35.190Z,9.77
2019-04-05T21:19:09.452Z,9.85
2019-04-05T21:21:39.251Z,9.85
2019-04-05T21:24:09.339Z,9.67
2019-04-05T21:26:40.131Z,9.87
2019-04-05T21:29:09.327Z,9.62
2019-04-05T21:31:49.098Z,9.70
2019-04-05T21:34:18.682Z,9.88
2019-04-05T21:36:49.008Z,9.64
2019-04-05T21:39:22.704Z,9.66
2019-04-05T21:41:54.021Z,9.58
2019-04-05T21:44:28.035Z,9.58
2019-04-05T21:47:02.418Z,9.55
2019-04-05T21:49:32.963Z,9.72
2019-04-05T21:52:03.687Z,9.45
2019-04-05T21:57:04.310Z,9.54
2019-04-05T21:59:33.778Z,9.60
2019-04-05T22:02:04.132Z,9.54
2019-04-05T22:04:33.299Z,9.41
2019-04-05T22:07:02.622Z,9.60
2019-04-05T22:09:31.736Z,9.57
2019-04-05T22:12:00.895Z,9.47
2019-04-05T22:14:30.387Z,9.47
2019-04-05T22:16:59.612Z,9.42
2019-04-05T22:19:29.944Z,9.65
2019-04-05T22:21:59.159Z,9.65
2019-04-05T22:24:28.436Z,9.27
2019-04-05T22:26:57.578Z,9.06
2019-04-05T22:29:29.580Z,9.15
2019-04-05T22:32:01.442Z,9.33
2019-04-05T22:34:54.251Z,9.31
2019-04-05T22:37:25.933Z,9.35
2019-04-05T22:39:56.217Z,9.35
2019-04-05T22:45:40.689Z,9.35
2019-04-05T22:48:33.064Z,9.20
2019-04-05T22:51:12.475Z,9.52
2019-04-05T22:53:43.758Z,9.21
2019-04-05T22:56:18.145Z,9.13
2019-04-05T22:58:48.431Z,9.20
2019-04-05T23:01:24.825Z,9.22
2019-04-05T23:04:06.161Z,9.32
2019-04-05T23:07:22.939Z,9.33
2019-04-05T23:09:56.471Z,9.08
2019-04-05T23:12:32.042Z,9.24
2019-04-05T23:15:02.193Z,9.32
2019-04-05T23:17:34.103Z,9.28
2019-04-05T23:20:08.934Z,9.28
2019-04-05T23:22:41.099Z,9.31
2019-04-05T23:25:21.409Z,9.41
2019-04-05T23:30:38.919Z,9.38
2019-04-05T23:33:09.854Z,9.38
2019-04-05T23:35:41.160Z,9.09
2019-04-05T23:38:10.928Z,9.09
2019-04-05T23:40:49.176Z,9.21
2019-04-05T23:43:51.324Z,9.21
2019-04-05T23:46:22.377Z,9.22
2019-04-05T23:48:52.444Z,9.18
2019-04-05T23:51:21.696Z,8.92
2019-04-05T23:53:53.897Z,9.06
2019-04-05T23:59:24.514Z,9.21
